Time;durP1;ratioP1;P1;durP2;ratioP2;P2;SDS_P1;SDS_P2;PMS_P1;PMS_P2;Temp;Humidity;BMP_temperature;BMP_pressure;BME280_temperature;BME280_humidity;BME280_pressure;Samples;Min_cycle;Max_cycle;Signal;HPM_P1;HPM_P2
2022/03/01 00:02:22;;;;;;;14.98;8.82;;;1.00;99.90;;;;;;5058785;28;20052;-59
2022/03/01 00:04:48;;;;;;;19.92;10.00;;;1.00;99.90;;;;;;5066917;28;20101;-56
2022/03/01 00:07:14;;;;;;;19.40;9.32;;;0.90;99.90;;;;;;5059948;28;20051;-59
2022/03/01 00:09:39;;;;;;;16.33;9.15;;;0.90;99.90;;;;;;5067278;28;20048;-56
2022/03/01 00:12:06;;;;;;;15.38;8.65;;;0.90;99.90;;;;;;5058826;28;20080;-56
2022/03/01 00:14:31;;;;;;;15.43;8.90;;;0.80;99.90;;;;;;5060232;28;20039;-57
2022/03/01 00:16:57;;;;;;;14.20;8.73;;;0.80;99.90;;;;;;5054946;28;20049;-56
2022/03/01 00:19:23;;;;;;;13.32;8.05;;;0.90;99.90;;;;;;5063578;28;20040;-56
2022/03/01 00:21:48;;;;;;;14.85;9.27;;;0.80;99.90;;;;;;5060245;28;20044;-55
2022/03/01 00:24:14;;;;;;;18.83;9.90;;;0.80;99.90;;;;;;5066728;28;20479;-56
2022/03/01 00:26:40;;;;;;;17.80;9.43;;;1.90;99.90;;;;;;5066747;28;20457;-55
2022/03/01 00:29:06;;;;;;;14.98;7.78;;;0.70;99.90;;;;;;5067337;28;20067;-56
2022/03/01 00:31:32;;;;;;;14.82;8.68;;;1.30;99.90;;;;;;5050552;28;20384;-58
2022/03/01 00:33:58;;;;;;;14.35;9.70;;;0.70;99.90;;;;;;5066711;28;20035;-55
2022/03/01 00:36:23;;;;;;;15.60;8.23;;;0.80;99.90;;;;;;5066938;28;20044;-55
2022/03/01 00:38:49;;;;;;;16.15;9.80;;;0.70;99.90;;;;;;5067150;28;20040;-56
2022/03/01 00:41:15;;;;;;;19.00;9.48;;;0.70;99.90;;;;;;5066444;28;20048;-59
2022/03/01 00:43:40;;;;;;;14.48;8.85;;;0.70;99.90;;;;;;5047111;28;20041;-56
2022/03/01 00:46:06;;;;;;;15.35;9.32;;;0.70;99.90;;;;;;5046931;28;20488;-56
2022/03/01 00:48:32;;;;;;;13.57;8.15;;;0.70;99.90;;;;;;5048303;28;20080;-56
2022/03/01 00:50:57;;;;;;;16.08;10.05;;;0.60;99.90;;;;;;5046006;28;20045;-56
2022/03/01 00:53:23;;;;;;;16.63;8.80;;;0.60;99.90;;;;;;5063892;28;20052;-55
2022/03/01 00:55:49;;;;;;;16.30;8.70;;;0.60;99.90;;;;;;5063814;28;20537;-56
2022/03/01 00:58:15;;;;;;;15.38;9.07;;;0.50;99.90;;;;;;5050624;28;20056;-61
2022/03/01 01:00:40;;;;;;;12.73;8.25;;;0.50;99.90;;;;;;5052042;28;20045;-56
2022/03/01 01:03:06;;;;;;;12.65;8.32;;;0.50;99.90;;;;;;5047093;28;20043;-57
2022/03/01 01:05:32;;;;;;;14.32;8.52;;;0.50;99.90;;;;;;5064417;28;20084;-58
2022/03/01 01:07:58;;;;;;;14.60;9.05;;;0.40;99.90;;;;;;5049959;28;20858;-56
2022/03/01 01:10:24;;;;;;;14.57;8.35;;;0.40;99.90;;;;;;5049171;28;20045;-62
2022/03/01 01:12:50;;;;;;;14.45;9.10;;;0.40;99.90;;;;;;5053429;28;20144;-60
2022/03/01 01:15:18;;;;;;;16.83;8.55;;;0.40;99.90;;;;;;5048260;28;20099;-63
2022/03/01 01:17:44;;;;;;;15.75;9.43;;;0.30;99.90;;;;;;5066642;28;20521;-62
2022/03/01 01:20:10;;;;;;;15.82;8.50;;;0.30;99.90;;;;;;5066005;28;20502;-56
2022/03/01 01:22:42;;;;;;;16.40;11.27;;;0.40;99.90;;;;;;5047020;28;20045;-60
2022/03/01 01:25:16;;;;;;;15.10;8.52;;;0.70;99.90;;;;;;5061229;28;20520;-56
2022/03/01 01:27:45;;;;;;;13.68;8.40;;;0.30;99.90;;;;;;5066210;28;20036;-63
2022/03/01 01:30:13;;;;;;;14.75;8.95;;;0.30;99.90;;;;;;5066762;28;20056;-62
2022/03/01 01:32:40;;;;;;;17.52;9.23;;;0.30;99.90;;;;;;5051020;28;20037;-57
2022/03/01 01:35:07;;;;;;;18.02;8.88;;;0.30;99.90;;;;;;5046802;28;20063;-58
2022/03/01 01:37:33;;;;;;;17.73;9.18;;;0.20;99.90;;;;;;5054382;28;20091;-58
2022/03/01 01:39:59;;;;;;;16.92;9.85;;;0.30;99.90;;;;;;5047732;28;20088;-58
2022/03/01 01:42:25;;;;;;;16.85;9.43;;;0.20;99.90;;;;;;5051031;28;20045;-58
2022/03/01 01:44:51;;;;;;;15.45;9.57;;;0.30;99.90;;;;;;5046187;28;20127;-59
2022/03/01 01:47:16;;;;;;;14.80;8.90;;;1.00;99.90;;;;;;5046673;28;20049;-58
2022/03/01 01:49:42;;;;;;;16.75;9.98;;;0.20;99.90;;;;;;5046209;28;20049;-57
2022/03/01 01:52:08;;;;;;;18.73;9.88;;;0.20;99.90;;;;;;5061052;28;20060;-58
2022/03/01 01:54:34;;;;;;;17.80;10.05;;;0.20;99.90;;;;;;5047141;28;20049;-58
2022/03/01 01:56:59;;;;;;;17.63;9.70;;;0.20;99.90;;;;;;5047906;28;20128;-56
2022/03/01 01:59:25;;;;;;;15.25;9.15;;;0.50;99.90;;;;;;5065142;28;20062;-56
2022/03/01 02:01:51;;;;;;;14.75;7.63;;;0.30;99.90;;;;;;5059531;28;20410;-58
2022/03/01 02:04:17;;;;;;;14.50;9.60;;;0.30;99.90;;;;;;5062659;28;20048;-56
2022/03/01 02:06:53;;;;;;;14.40;9.63;;;0.20;99.90;;;;;;5045841;28;20460;-58
2022/03/01 02:09:20;;;;;;;14.02;8.90;;;0.10;99.90;;;;;;5062619;28;20094;-58
2022/03/01 02:11:46;;;;;;;13.90;9.13;;;0.10;99.90;;;;;;5054662;28;20045;-56
2022/03/01 02:14:12;;;;;;;15.98;9.73;;;0.10;99.90;;;;;;5051196;28;20314;-56
2022/03/01 02:16:39;;;;;;;17.75;10.70;;;0.10;99.90;;;;;;5056621;28;20519;-56
2022/03/01 02:19:05;;;;;;;18.10;10.23;;;0.00;99.90;;;;;;5050732;28;20183;-57
2022/03/01 02:21:31;;;;;;;17.70;9.68;;;0.10;99.90;;;;;;5050315;28;20094;-56
2022/03/01 02:23:57;;;;;;;15.88;9.50;;;0.10;99.90;;;;;;5052240;28;20048;-56
2022/03/01 02:26:23;;;;;;;15.90;10.90;;;0.10;99.90;;;;;;5069321;28;20155;-57
2022/03/01 02:28:49;;;;;;;19.40;9.77;;;0.10;99.90;;;;;;5057320;28;20155;-59
2022/03/01 02:31:14;;;;;;;18.15;11.30;;;0.10;99.90;;;;;;5051091;28;20045;-55
2022/03/01 02:33:40;;;;;;;16.77;10.07;;;0.10;99.90;;;;;;5050939;28;20037;-56
2022/03/01 02:36:06;;;;;;;16.95;9.88;;;0.10;99.90;;;;;;5069433;28;20055;-56
2022/03/01 02:38:32;;;;;;;17.70;10.80;;;0.10;99.90;;;;;;5059283;28;20056;-55
2022/03/01 02:40:57;;;;;;;18.25;9.85;;;0.10;99.90;;;;;;5050199;28;20045;-56
2022/03/01 02:43:23;;;;;;;16.45;10.25;;;0.10;99.90;;;;;;5049989;28;20399;-61
2022/03/01 02:45:49;;;;;;;15.13;9.43;;;0.10;99.90;;;;;;5066495;28;20485;-56
2022/03/01 02:48:14;;;;;;;14.80;9.57;;;0.10;99.90;;;;;;5069955;28;20089;-55
2022/03/01 02:50:40;;;;;;;15.63;9.63;;;0.10;99.90;;;;;;5059638;28;20068;-55
2022/03/01 02:53:07;;;;;;;18.42;9.90;;;0.10;99.90;;;;;;5049956;28;20605;-56
2022/03/01 02:55:32;;;;;;;16.35;10.18;;;0.10;99.90;;;;;;5063720;28;20143;-55
2022/03/01 02:57:58;;;;;;;19.15;9.80;;;0.10;99.90;;;;;;5058581;28;20564;-56
2022/03/01 03:00:24;;;;;;;19.50;9.73;;;0.00;99.90;;;;;;5060588;28;20105;-55
2022/03/01 03:02:50;;;;;;;19.45;10.90;;;0.00;99.90;;;;;;5069386;28;20036;-56
2022/03/01 03:05:15;;;;;;;18.67;10.65;;;0.00;99.90;;;;;;5067639;28;20055;-56
2022/03/01 03:07:42;;;;;;;19.33;9.80;;;0.00;99.90;;;;;;5063365;28;20052;-56
2022/03/01 03:10:08;;;;;;;21.52;10.13;;;0.10;99.90;;;;;;5057388;28;20052;-56
2022/03/01 03:12:33;;;;;;;15.68;10.27;;;0.00;99.90;;;;;;5049285;28;20052;-55
2022/03/01 03:14:59;;;;;;;20.65;10.93;;;0.10;99.90;;;;;;5049037;28;20049;-56
2022/03/01 03:17:25;;;;;;;16.95;10.00;;;0.00;99.90;;;;;;5062849;28;20114;-56
2022/03/01 03:19:51;;;;;;;18.30;10.55;;;0.00;99.90;;;;;;5064654;28;20483;-58
2022/03/01 03:22:17;;;;;;;16.98;10.25;;;-0.10;99.90;;;;;;5065439;28;20040;-56
2022/03/01 03:24:42;;;;;;;21.20;11.00;;;-0.10;99.90;;;;;;5068989;28;20048;-55
2022/03/01 03:27:08;;;;;;;17.83;10.48;;;-0.10;99.90;;;;;;5058896;28;20409;-56
2022/03/01 03:29:34;;;;;;;17.02;10.60;;;-0.10;99.90;;;;;;5062051;28;20044;-56
2022/03/01 03:31:59;;;;;;;19.55;10.88;;;-0.10;99.90;;;;;;5063483;28;20131;-57
2022/03/01 03:34:25;;;;;;;20.85;11.32;;;-0.20;99.90;;;;;;5049378;28;20071;-56
2022/03/01 03:36:52;;;;;;;15.43;9.20;;;-0.20;99.90;;;;;;5048866;28;20143;-55
2022/03/01 03:39:19;;;;;;;20.88;11.45;;;-0.20;99.90;;;;;;5049052;28;20102;-56
2022/03/01 03:41:45;;;;;;;22.27;12.07;;;-0.10;99.90;;;;;;5056344;28;20045;-56
2022/03/01 03:44:11;;;;;;;18.55;10.85;;;-0.10;99.90;;;;;;5050847;28;20043;-56
2022/03/01 03:46:36;;;;;;;19.80;11.27;;;-0.20;99.90;;;;;;5068068;28;20055;-55
2022/03/01 03:49:03;;;;;;;17.23;10.02;;;-0.20;99.90;;;;;;5058295;28;20047;-55
2022/03/01 03:51:29;;;;;;;16.13;9.63;;;-0.20;99.90;;;;;;5058874;28;20129;-55
2022/03/01 03:53:55;;;;;;;20.77;10.13;;;-0.10;99.90;;;;;;5068809;28;20136;-61
2022/03/01 03:56:21;;;;;;;15.65;9.63;;;0.50;99.90;;;;;;5062444;28;20454;-55
2022/03/01 03:58:47;;;;;;;17.55;10.15;;;-0.10;99.90;;;;;;5060185;28;20051;-55
2022/03/01 04:01:12;;;;;;;18.17;11.45;;;0.00;99.90;;;;;;5058228;28;20391;-56
2022/03/01 04:03:38;;;;;;;17.30;10.82;;;0.00;99.90;;;;;;5068357;28;20510;-56
2022/03/01 04:06:04;;;;;;;18.15;10.88;;;0.00;99.90;;;;;;5052120;28;20092;-56
2022/03/01 04:08:30;;;;;;;18.25;10.02;;;0.00;99.90;;;;;;5048888;28;20048;-56
2022/03/01 04:10:56;;;;;;;15.95;10.70;;;0.10;99.90;;;;;;5048289;28;20041;-56
2022/03/01 04:13:23;;;;;;;23.67;9.93;;;0.10;99.90;;;;;;5048030;28;20103;-56
2022/03/01 04:15:50;;;;;;;16.40;10.20;;;0.80;99.90;;;;;;5051730;28;20049;-57
2022/03/01 04:18:15;;;;;;;21.45;11.15;;;0.10;99.90;;;;;;5067741;28;20048;-59
2022/03/01 04:20:41;;;;;;;21.80;11.77;;;0.10;99.90;;;;;;5062833;28;20045;-56
2022/03/01 04:23:07;;;;;;;17.58;11.18;;;0.10;99.90;;;;;;5056766;28;20045;-56
2022/03/01 04:25:33;;;;;;;17.15;9.88;;;0.20;99.90;;;;;;5049443;28;20045;-55
2022/03/01 04:27:59;;;;;;;17.92;10.98;;;0.20;99.90;;;;;;5061111;28;20166;-58
2022/03/01 04:30:27;;;;;;;19.92;10.75;;;0.20;99.90;;;;;;5049073;28;20493;-58
2022/03/01 04:32:53;;;;;;;16.92;10.77;;;0.30;99.90;;;;;;5051958;28;20041;-56
2022/03/01 04:35:19;;;;;;;24.45;12.98;;;0.30;99.90;;;;;;5047695;28;20049;-59
2022/03/01 04:37:45;;;;;;;19.90;11.38;;;0.30;99.90;;;;;;5047758;28;20052;-62
2022/03/01 04:40:13;;;;;;;19.35;11.82;;;0.30;99.90;;;;;;5047573;28;20116;-60
2022/03/01 04:42:38;;;;;;;20.08;11.85;;;0.30;99.90;;;;;;5051559;28;20113;-56
2022/03/01 04:45:09;;;;;;;23.90;11.77;;;0.30;99.90;;;;;;5066997;28;20445;-56
2022/03/01 04:47:36;;;;;;;18.98;10.38;;;0.30;99.90;;;;;;5065765;28;20055;-56
2022/03/01 04:50:02;;;;;;;20.05;11.25;;;0.30;99.90;;;;;;5066745;28;20041;-55
2022/03/01 04:52:28;;;;;;;17.48;11.15;;;0.30;99.90;;;;;;5050396;28;20077;-56
2022/03/01 04:54:53;;;;;;;20.88;11.07;;;0.30;99.90;;;;;;5046906;28;20105;-56
2022/03/01 04:57:19;;;;;;;18.23;11.38;;;0.30;99.90;;;;;;5062090;28;20139;-56
2022/03/01 04:59:44;;;;;;;17.98;10.95;;;0.30;99.90;;;;;;5065732;28;20036;-56
2022/03/01 05:02:10;;;;;;;17.83;11.55;;;0.30;99.90;;;;;;5050818;28;20482;-56
2022/03/01 05:04:36;;;;;;;19.77;10.93;;;0.20;99.90;;;;;;5062002;28;20127;-56
2022/03/01 05:07:01;;;;;;;19.77;11.10;;;0.20;99.90;;;;;;5051311;28;20136;-56
2022/03/01 05:09:27;;;;;;;21.10;10.63;;;0.20;99.90;;;;;;5048657;28;20083;-56
2022/03/01 05:11:53;;;;;;;19.83;11.00;;;0.20;99.90;;;;;;5056018;28;20060;-56
2022/03/01 05:14:19;;;;;;;19.40;10.75;;;0.20;99.90;;;;;;5063432;28;20437;-56
2022/03/01 05:16:46;;;;;;;21.50;11.98;;;0.20;99.90;;;;;;5050377;28;20379;-56
2022/03/01 05:19:14;;;;;;;18.98;11.13;;;0.20;99.90;;;;;;5066712;28;20490;-55
2022/03/01 05:21:41;;;;;;;20.30;10.77;;;0.20;99.90;;;;;;5053517;28;20060;-55
2022/03/01 05:24:07;;;;;;;18.35;11.90;;;0.20;99.90;;;;;;5047185;28;20090;-56
2022/03/01 05:26:33;;;;;;;21.80;11.65;;;1.40;99.90;;;;;;5047657;28;20057;-56
2022/03/01 05:28:59;;;;;;;17.42;12.00;;;0.30;99.90;;;;;;5065327;28;20564;-56
2022/03/01 05:31:26;;;;;;;23.67;12.73;;;0.40;99.90;;;;;;5055461;28;20513;-56
2022/03/01 05:33:52;;;;;;;20.48;12.02;;;0.30;99.90;;;;;;5066412;28;20119;-56
2022/03/01 05:36:18;;;;;;;22.23;12.10;;;0.30;99.90;;;;;;5064578;28;20562;-56
2022/03/01 05:38:44;;;;;;;18.95;10.80;;;0.40;99.90;;;;;;5066458;28;20037;-56
2022/03/01 05:41:10;;;;;;;16.52;10.18;;;0.40;99.90;;;;;;5063510;28;20058;-56
2022/03/01 05:43:37;;;;;;;21.85;10.35;;;0.60;99.90;;;;;;5061054;28;20182;-56
2022/03/01 05:46:05;;;;;;;21.15;12.48;;;0.40;99.90;;;;;;5044669;28;20056;-56
2022/03/01 05:48:31;;;;;;;20.90;12.30;;;0.40;99.90;;;;;;5046425;28;20076;-56
2022/03/01 05:50:57;;;;;;;18.15;10.73;;;1.20;99.90;;;;;;5052140;28;20048;-56
2022/03/01 05:53:24;;;;;;;18.67;10.68;;;0.70;99.90;;;;;;5068631;28;20044;-56
2022/03/01 05:55:49;;;;;;;21.40;11.20;;;0.40;99.90;;;;;;5068476;28;20048;-56
2022/03/01 05:58:15;;;;;;;19.63;11.15;;;0.50;99.90;;;;;;5064148;28;20056;-56
2022/03/01 06:00:41;;;;;;;22.27;12.55;;;0.50;99.90;;;;;;5072903;28;20052;-56
2022/03/01 06:03:06;;;;;;;18.77;11.00;;;0.50;99.90;;;;;;5055426;28;20044;-56
2022/03/01 06:05:32;;;;;;;22.30;12.02;;;0.60;99.90;;;;;;5062347;28;20487;-56
2022/03/01 06:07:58;;;;;;;21.92;11.10;;;0.50;99.90;;;;;;5061903;28;20040;-56
2022/03/01 06:10:28;;;;;;;20.77;12.00;;;0.50;99.90;;;;;;5052963;28;20586;-56
2022/03/01 06:12:54;;;;;;;22.67;11.02;;;0.40;99.90;;;;;;5057077;28;20041;-56
2022/03/01 06:15:20;;;;;;;20.83;12.13;;;0.40;99.90;;;;;;5085303;28;20060;-61
2022/03/01 06:17:45;;;;;;;18.30;10.93;;;0.30;99.90;;;;;;5052404;28;20053;-57
2022/03/01 06:20:12;;;;;;;17.60;10.77;;;0.30;99.90;;;;;;5063721;28;20038;-55
2022/03/01 06:22:39;;;;;;;19.48;10.88;;;0.30;99.90;;;;;;5073033;28;20048;-56
2022/03/01 06:25:07;;;;;;;24.15;12.65;;;0.30;99.90;;;;;;5053892;28;20044;-56
2022/03/01 06:27:34;;;;;;;19.10;11.05;;;0.30;99.90;;;;;;5061532;28;20040;-58
2022/03/01 06:30:00;;;;;;;17.20;11.77;;;0.30;99.90;;;;;;5071540;28;20058;-57
2022/03/01 06:32:26;;;;;;;19.90;12.43;;;0.30;99.90;;;;;;5071498;28;20494;-59
2022/03/01 06:34:52;;;;;;;22.80;11.75;;;0.30;99.90;;;;;;5065915;28;20040;-58
2022/03/01 06:37:17;;;;;;;19.25;12.07;;;0.40;99.90;;;;;;5062685;28;20094;-56
2022/03/01 06:39:44;;;;;;;20.90;11.20;;;0.40;99.90;;;;;;5071073;28;20048;-56
2022/03/01 06:42:11;;;;;;;19.92;11.00;;;0.40;99.90;;;;;;5070216;28;20063;-57
2022/03/01 06:44:38;;;;;;;22.10;11.85;;;0.50;99.90;;;;;;5069005;28;20040;-56
2022/03/01 06:47:05;;;;;;;20.25;11.50;;;0.50;99.90;;;;;;5069704;28;20040;-56
2022/03/01 06:49:31;;;;;;;22.90;12.93;;;0.60;99.90;;;;;;5070438;28;20120;-58
2022/03/01 06:51:57;;;;;;;20.00;11.95;;;0.80;99.90;;;;;;5051956;28;20041;-58
2022/03/01 06:54:23;;;;;;;22.27;12.35;;;0.70;99.90;;;;;;5059270;28;20052;-58
2022/03/01 06:56:48;;;;;;;19.77;11.98;;;0.70;99.90;;;;;;5062225;28;20048;-58
2022/03/01 06:59:15;;;;;;;20.20;11.85;;;0.80;99.90;;;;;;5071953;28;20051;-58
2022/03/01 07:01:41;;;;;;;24.40;11.82;;;0.80;99.90;;;;;;5065080;28;20048;-58
2022/03/01 07:04:07;;;;;;;20.65;11.05;;;0.90;99.90;;;;;;5068982;28;20099;-56
2022/03/01 07:06:33;;;;;;;20.60;11.82;;;0.90;99.90;;;;;;5062652;28;20056;-56
2022/03/01 07:08:59;;;;;;;24.35;13.50;;;1.00;99.90;;;;;;5059308;28;20041;-56
2022/03/01 07:11:24;;;;;;;20.23;12.20;;;1.00;99.90;;;;;;5057346;28;20068;-56
2022/03/01 07:13:50;;;;;;;19.90;12.57;;;1.50;99.90;;;;;;5060776;28;20040;-60
2022/03/01 07:16:16;;;;;;;20.00;12.23;;;1.10;99.90;;;;;;5064592;28;20064;-56
2022/03/01 07:18:42;;;;;;;20.95;12.65;;;1.20;99.90;;;;;;5048752;28;20407;-56
2022/03/01 07:21:08;;;;;;;21.67;13.13;;;1.30;99.90;;;;;;5056047;28;20045;-63
2022/03/01 07:23:34;;;;;;;22.15;12.20;;;1.30;99.90;;;;;;5047709;28;20140;-69
2022/03/01 07:26:01;;;;;;;21.77;11.60;;;1.50;99.90;;;;;;5048589;28;20095;-58
2022/03/01 07:28:27;;;;;;;22.92;13.00;;;1.60;99.90;;;;;;5060754;28;20456;-56
2022/03/01 07:30:54;;;;;;;24.20;12.80;;;1.70;99.90;;;;;;5053827;28;20043;-56
2022/03/01 07:33:20;;;;;;;22.23;12.75;;;1.80;99.90;;;;;;5060097;28;20069;-55
2022/03/01 07:35:46;;;;;;;22.05;13.32;;;1.90;99.90;;;;;;5061311;28;20144;-56
2022/03/01 07:38:11;;;;;;;22.92;12.07;;;2.00;99.90;;;;;;5050025;28;20506;-56
2022/03/01 07:40:37;;;;;;;18.70;12.60;;;2.10;99.90;;;;;;5063527;28;20127;-56
2022/03/01 07:43:04;;;;;;;22.38;13.48;;;2.30;99.90;;;;;;5054910;28;20474;-58
2022/03/01 07:45:29;;;;;;;22.15;12.07;;;2.40;99.90;;;;;;5066938;28;20558;-58
2022/03/01 07:47:57;;;;;;;20.80;12.18;;;2.60;99.90;;;;;;5047095;28;20045;-56
2022/03/01 07:50:23;;;;;;;21.20;12.10;;;2.80;99.90;;;;;;5048020;28;20052;-57
2022/03/01 07:52:49;;;;;;;21.25;11.43;;;3.30;99.90;;;;;;5054382;28;20129;-58
2022/03/01 07:55:14;;;;;;;22.05;12.68;;;3.10;99.90;;;;;;5058842;28;20487;-56
2022/03/01 07:57:40;;;;;;;22.17;12.10;;;3.20;99.90;;;;;;5065786;28;20122;-55
2022/03/01 08:00:09;;;;;;;22.25;12.63;;;3.30;99.90;;;;;;5067493;28;20548;-55
2022/03/01 08:02:36;;;;;;;21.55;12.65;;;3.50;99.90;;;;;;5056658;28;20045;-59
2022/03/01 08:05:06;;;;;;;22.30;13.05;;;4.30;99.90;;;;;;5066369;28;20048;-58
2022/03/01 08:07:33;;;;;;;21.58;12.00;;;3.70;99.90;;;;;;5062279;28;20455;-58
2022/03/01 08:09:58;;;;;;;24.05;13.25;;;3.90;99.90;;;;;;5067849;28;20251;-58
2022/03/01 08:12:24;;;;;;;21.17;13.13;;;3.90;99.90;;;;;;5066762;28;20051;-58
2022/03/01 08:14:50;;;;;;;21.20;11.60;;;4.00;99.90;;;;;;5066746;28;20506;-59
2022/03/01 08:17:15;;;;;;;18.20;10.68;;;4.10;99.90;;;;;;5065940;28;20052;-56
2022/03/01 08:19:41;;;;;;;19.33;12.45;;;4.60;99.90;;;;;;5076153;28;20043;-64
2022/03/01 08:22:07;;;;;;;18.85;10.82;;;4.30;99.90;;;;;;5073252;28;20048;-68
2022/03/01 08:24:32;;;;;;;18.00;10.98;;;4.30;99.90;;;;;;5064163;28;20056;-55
2022/03/01 08:26:59;;;;;;;20.50;12.40;;;4.40;99.90;;;;;;5067063;28;20118;-57
2022/03/01 08:29:25;;;;;;;20.40;11.25;;;4.50;99.90;;;;;;5067625;28;20063;-65
2022/03/01 08:31:51;;;;;;;19.75;11.50;;;4.60;99.90;;;;;;5066872;28;20052;-67
2022/03/01 08:34:16;;;;;;;21.05;12.85;;;4.70;99.90;;;;;;5067403;28;20041;-67
2022/03/01 08:36:42;;;;;;;20.75;12.05;;;4.70;99.90;;;;;;5067068;28;20565;-69
2022/03/01 08:39:08;;;;;;;20.23;11.90;;;4.70;99.90;;;;;;5064457;28;20044;-65
2022/03/01 08:41:33;;;;;;;19.83;11.43;;;4.70;99.90;;;;;;5057240;28;20059;-68
2022/03/01 08:43:59;;;;;;;18.27;11.60;;;4.80;99.90;;;;;;5059928;28;20456;-59
2022/03/01 08:46:25;;;;;;;19.58;11.10;;;4.90;99.90;;;;;;5063764;28;20052;-64
2022/03/01 08:48:53;;;;;;;20.67;12.00;;;5.00;99.90;;;;;;5066043;28;20047;-66
2022/03/01 08:51:21;;;;;;;16.98;10.20;;;5.10;99.90;;;;;;5066828;28;20053;-60
2022/03/01 08:53:47;;;;;;;17.48;11.23;;;5.20;99.90;;;;;;5055676;28;20055;-56
2022/03/01 08:56:15;;;;;;;20.40;12.27;;;5.30;99.90;;;;;;5050966;28;20220;-66
2022/03/01 08:58:44;;;;;;;17.55;10.43;;;5.30;99.90;;;;;;5050002;28;20049;-55
2022/03/01 09:01:10;;;;;;;17.92;10.85;;;5.60;99.90;;;;;;5052267;28;20562;-56
2022/03/01 09:03:36;;;;;;;16.52;11.07;;;5.70;99.90;;;;;;5059296;28;20052;-57
2022/03/01 09:06:05;;;;;;;21.23;11.73;;;5.90;99.90;;;;;;5062561;28;20106;-55
2022/03/01 09:08:35;;;;;;;17.98;11.77;;;6.10;99.90;;;;;;5057185;28;20080;-57
2022/03/01 09:11:01;;;;;;;19.85;11.85;;;6.30;99.90;;;;;;5045265;28;20076;-56
2022/03/01 09:13:28;;;;;;;18.05;10.55;;;6.30;99.90;;;;;;5053901;28;20145;-56
2022/03/01 09:15:54;;;;;;;20.42;11.48;;;6.40;99.90;;;;;;5050875;28;20044;-56
2022/03/01 09:18:21;;;;;;;17.30;11.38;;;6.50;99.90;;;;;;5049822;28;20394;-57
2022/03/01 09:20:47;;;;;;;18.17;11.00;;;6.60;99.90;;;;;;5064276;28;20056;-56
2022/03/01 09:23:13;;;;;;;19.23;11.98;;;6.80;99.90;;;;;;5057614;28;20498;-55
2022/03/01 09:25:39;;;;;;;18.73;11.80;;;7.00;99.90;;;;;;5057520;28;20048;-56
2022/03/01 09:28:04;;;;;;;21.70;12.50;;;7.20;99.90;;;;;;5063366;28;20039;-66
2022/03/01 09:30:30;;;;;;;18.17;11.55;;;7.40;99.90;;;;;;5062270;28;20072;-65
2022/03/01 09:32:56;;;;;;;18.73;11.38;;;7.60;99.90;;;;;;5057602;28;20090;-64
2022/03/01 09:35:22;;;;;;;23.42;10.85;;;7.90;99.90;;;;;;5045264;28;20049;-65
2022/03/01 09:37:48;;;;;;;17.13;11.65;;;8.20;99.90;;;;;;5059912;28;20432;-68
2022/03/01 09:40:14;;;;;;;16.42;11.05;;;8.70;99.90;;;;;;5057250;28;20215;-65
2022/03/01 09:42:41;;;;;;;17.73;11.75;;;9.00;99.90;;;;;;5063147;28;20036;-61
2022/03/01 09:45:08;;;;;;;18.75;11.07;;;9.50;99.90;;;;;;5052486;28;20048;-65
2022/03/01 09:47:34;;;;;;;19.50;10.93;;;9.80;99.90;;;;;;5064701;28;20048;-63
2022/03/01 09:50:00;;;;;;;17.83;11.32;;;10.10;99.90;;;;;;5058200;28;20463;-67
2022/03/01 09:52:26;;;;;;;15.77;9.82;;;10.10;99.90;;;;;;5044305;28;20504;-62
2022/03/01 09:54:52;;;;;;;15.13;10.52;;;10.30;99.90;;;;;;5030512;28;20044;-67
2022/03/01 09:57:19;;;;;;;14.10;9.75;;;10.50;99.90;;;;;;5065697;28;20934;-65
2022/03/01 09:59:46;;;;;;;15.35;9.07;;;10.40;99.90;;;;;;5064560;28;20044;-66
2022/03/01 10:02:12;;;;;;;14.50;9.25;;;10.40;99.90;;;;;;5065464;28;20040;-67
2022/03/01 10:04:54;;;;;;;16.05;10.40;;;10.20;99.90;;;;;;5064772;28;20098;-66
2022/03/01 10:07:28;;;;;;;16.17;11.52;;;9.90;99.90;;;;;;5062460;28;20040;-67
2022/03/01 10:09:54;;;;;;;14.63;9.90;;;9.80;99.90;;;;;;5059985;28;20102;-64
2022/03/01 10:12:27;;;;;;;17.17;10.02;;;9.90;99.90;;;;;;5064998;28;20036;-58
2022/03/01 10:15:28;;;;;;;15.70;10.17;;;9.90;99.90;;;;;;5063237;28;20044;-56
2022/03/01 10:17:54;;;;;;;14.75;10.07;;;10.00;99.90;;;;;;5057331;28;20117;-56
2022/03/01 10:20:20;;;;;;;14.70;9.70;;;9.90;99.90;;;;;;5053932;28;20037;-58
2022/03/01 10:22:51;;;;;;;15.77;10.27;;;10.00;99.90;;;;;;5065185;28;20402;-58
2022/03/01 10:25:20;;;;;;;14.70;10.20;;;9.90;99.90;;;;;;5063588;28;20410;-56
2022/03/01 10:27:48;;;;;;;15.77;10.32;;;10.00;99.90;;;;;;5064959;28;20060;-55
2022/03/01 10:30:26;;;;;;;15.77;9.80;;;10.00;99.90;;;;;;5064091;28;20040;-56
2022/03/01 10:33:09;;;;;;;15.02;9.93;;;10.00;99.90;;;;;;5063739;28;20496;-56
2022/03/01 10:35:36;;;;;;;17.48;10.35;;;10.20;99.90;;;;;;5059291;28;20045;-56
2022/03/01 10:38:04;;;;;;;14.85;10.48;;;10.10;99.90;;;;;;5067664;28;20044;-56
2022/03/01 10:40:30;;;;;;;13.65;10.20;;;10.00;99.90;;;;;;5068236;28;20151;-58
2022/03/01 10:43:09;;;;;;;15.85;10.15;;;10.20;99.90;;;;;;5068956;28;20056;-56
2022/03/01 10:45:43;;;;;;;14.07;10.10;;;10.40;99.90;;;;;;5064467;28;20419;-56
2022/03/01 10:48:31;;;;;;;16.13;10.43;;;10.70;99.90;;;;;;5049752;28;20148;-56
2022/03/01 10:51:06;;;;;;;14.50;10.45;;;11.00;99.90;;;;;;5049414;28;20048;-56
2022/03/01 10:53:38;;;;;;;15.80;9.25;;;11.50;99.90;;;;;;5055095;28;20041;-56
2022/03/01 10:56:06;;;;;;;14.90;10.25;;;11.60;99.90;;;;;;5055260;28;20056;-57
2022/03/01 10:58:33;;;;;;;15.35;9.75;;;11.70;99.90;;;;;;5067692;28;20151;-55
2022/03/01 11:00:58;;;;;;;13.88;9.07;;;12.00;99.90;;;;;;5068392;28;20048;-56
2022/03/01 11:03:25;;;;;;;13.18;9.35;;;12.30;99.90;;;;;;5069134;28;20053;-56
2022/03/01 11:05:54;;;;;;;11.60;8.73;;;12.60;99.90;;;;;;5059453;28;20076;-58
2022/03/01 11:08:24;;;;;;;19.05;10.30;;;12.70;99.90;;;;;;5068928;28;20120;-56
2022/03/01 11:10:51;;;;;;;12.32;8.73;;;13.00;99.90;;;;;;5068573;28;20084;-56
2022/03/01 11:13:20;;;;;;;13.20;9.82;;;13.20;99.90;;;;;;5052958;28;20115;-56
2022/03/01 11:16:04;;;;;;;17.23;9.73;;;13.20;99.90;;;;;;5049750;28;20495;-56
2022/03/01 11:18:50;;;;;;;13.52;9.38;;;13.30;99.90;;;;;;5069053;28;20055;-57
2022/03/01 11:21:18;;;;;;;13.85;9.40;;;13.60;99.90;;;;;;5063658;28;20057;-58
2022/03/01 11:23:44;;;;;;;14.38;9.63;;;13.80;99.90;;;;;;5052111;28;20165;-56
2022/03/01 11:26:15;;;;;;;14.48;9.70;;;14.20;99.90;;;;;;5050704;28;20047;-57
2022/03/01 11:28:54;;;;;;;12.13;9.00;;;13.90;99.90;;;;;;5065828;28;20045;-56
2022/03/01 11:31:30;;;;;;;15.25;9.95;;;13.90;99.90;;;;;;5065151;28;20045;-57
2022/03/01 11:34:15;;;;;;;16.55;9.85;;;13.80;99.90;;;;;;5064323;28;20452;-55
2022/03/01 11:36:53;;;;;;;13.73;8.90;;;13.90;99.90;;;;;;5064521;28;20071;-56
2022/03/01 11:39:37;;;;;;;14.82;10.20;;;14.20;99.90;;;;;;5065070;28;20041;-56
2022/03/01 11:42:16;;;;;;;20.02;12.07;;;14.20;99.90;;;;;;5056858;28;20052;-56
2022/03/01 11:44:51;;;;;;;20.00;11.00;;;14.50;99.90;;;;;;5085259;28;20087;-56
2022/03/01 11:47:31;;;;;;;17.83;11.07;;;14.40;99.90;;;;;;5050641;28;20135;-57
2022/03/01 11:50:09;;;;;;;15.45;10.43;;;14.00;99.90;;;;;;5064496;28;20052;-58
2022/03/01 11:53:02;;;;;;;15.60;10.30;;;14.20;99.90;;;;;;5047448;28;20048;-56
2022/03/01 11:55:56;;;;;;;12.57;9.48;;;14.10;99.90;;;;;;5063194;28;20569;-56
2022/03/01 11:58:29;;;;;;;13.63;10.32;;;14.20;99.90;;;;;;5064965;28;20514;-55
2022/03/01 12:01:06;;;;;;;15.45;10.00;;;13.80;99.90;;;;;;5046881;28;20045;-56
2022/03/01 12:03:39;;;;;;;13.85;9.65;;;13.90;99.90;;;;;;5041279;28;20123;-57
2022/03/01 12:06:07;;;;;;;15.73;9.68;;;13.80;99.90;;;;;;5046164;28;20110;-63
2022/03/01 12:08:38;;;;;;;14.32;9.73;;;13.50;99.90;;;;;;5055436;28;20417;-60
2022/03/01 12:11:10;;;;;;;15.90;9.20;;;12.90;99.90;;;;;;5047377;28;20075;-59
2022/03/01 12:13:42;;;;;;;14.48;9.25;;;12.40;99.90;;;;;;5061653;28;20487;-62
2022/03/01 12:16:26;;;;;;;13.65;10.35;;;12.20;99.90;;;;;;5043660;28;20036;-58
2022/03/01 12:19:05;;;;;;;;;;;12.50;99.90;;;;;;5033864;28;20461;-62
2022/03/01 12:21:31;;;;;;;13.43;10.07;;;12.10;99.90;;;;;;5045049;28;19924;-59
2022/03/01 12:23:59;;;;;;;17.30;10.73;;;12.30;99.90;;;;;;5062419;28;20052;-62
2022/03/01 12:26:40;;;;;;;15.32;11.40;;;11.90;99.90;;;;;;5060641;28;20048;-63
2022/03/01 12:29:08;;;;;;;14.43;10.23;;;11.60;99.90;;;;;;5043477;28;20056;-65
2022/03/01 12:31:34;;;;;;;14.00;10.52;;;11.50;99.90;;;;;;5044340;28;20052;-63
2022/03/01 12:34:08;;;;;;;16.40;11.40;;;11.10;99.90;;;;;;5063505;28;20048;-56
2022/03/01 12:36:41;;;;;;;15.38;10.98;;;10.80;99.90;;;;;;5064058;28;20052;-57
2022/03/01 12:39:14;;;;;;;23.92;10.98;;;10.80;99.90;;;;;;5045460;28;20406;-57
2022/03/01 12:41:42;;;;;;;17.40;10.13;;;10.60;99.90;;;;;;5051693;28;20044;-56